METAR AND TAF INFORMATION
METAR FOR LFSD
ADDS - METARS form results

(1359 UTC 13 December 2018)
Data provider http://aviationweather.gov/metar/data/
 
METAR text: LFSD 131330Z AUTO 04008KT 9999 FEW022 04/M02 Q1010
Conditions at: LFSD (DIJON/LONGVIC(FA, FR) observed 1330 UTC 13 December 2018
Temperature: 4.0°C (39°F)
Dewpoint: -2.0°C (28°F) [RH = 65%]
Pressure (altimeter): 29.82 inches Hg (1010.0 mb)
Winds: from the NE (40 degrees) at 9 MPH (8 knots; 4.1 m/s)
Visibility: 6 or more miles (10+ km)
Ceiling: at least 12,000 feet AGL
Clouds: few clouds at 2200 feet AGL
Weather: no significant weather observed at this time

METAR text: LFSD 131300Z AUTO 03009KT 9999 FEW021 03/M01 Q1011
Conditions at: LFSD (DIJON/LONGVIC(FA, FR) observed 1300 UTC 13 December 2018
Temperature: 3.0°C (37°F)
Dewpoint: -1.0°C (30°F) [RH = 75%]
Pressure (altimeter): 29.85 inches Hg (1011.0 mb)
Winds: from the NNE (30 degrees) at 10 MPH (9 knots; 4.6 m/s)
Visibility: 6 or more miles (10+ km)
Ceiling: at least 12,000 feet AGL
Clouds: few clouds at 2100 feet AGL
Weather: no significant weather observed at this time

 AIRPORT MAP

 RUNWAY INFORMATION
Runway 02 Runway length 5905 ft Runway width 118 ft
Runway elevation 719 ft Runway displaced threshold 0 ft Runway heading 15
Runway 20 Runway length 5905 ft Runway width 118 ft
Runway elevation 728 ft Runway displaced threshold 0 ft Runway heading 195
Runway 18 Runway length 7874 ft Runway width 148 ft
Runway elevation 726 ft Runway displaced threshold 0 ft Runway heading 175
Runway 36 Runway length 7874 ft Runway width 148 ft
Runway elevation 710 ft Runway displaced threshold 0 ft Runway heading 355

 AIRPORT FREQUENCIES
Type A/D Name DIJON APP Frequency 142.45 MHZ
Type AFIS Name DIJON INFO Frequency 118.325 MHZ
Type GND Name DIJON GND Frequency 122.1 MHZ
Type TWR Name DIJON TWR Frequency 118.325 MHZ

 AIRPORT NEAR NAVIGATION AIDS
Type TACAN Name Dijon Frequency 113500 KHZ
Type VOR-DME Name Dijon Frequency 111450 KHZ



Powered by Virtual Airlines Manager [v2.6.2]